MSC Claudia — 3FZA6 — position and weather

sailwx.info

Track history (hours):
 
Tides and Currents Weather Stations Pressure Air Temp Water Temp Dewpoint Dewpoint Depression Visibility Wind Speed Wind Dir Waves Ship Positions

MSC Claudia

Last reported at 2015-Jul-24 14:33 UTC. Time now 2015-Jul-29 22:00 UTC.
Position S 31°53' E 115°31'.

Length 292 m; draft 11.3 m.

Type: Ship (hazmat cat A). MMSI: 370606000.

Date/timePositionNaut miles runAvg speedWind from/ knotsBaromVisibWave heightAir tempDewpointWater temp
2015-Jul-24 14:33S 31°53' E 115°31'1212.2
2015-Jul-24 13:33S 32°01' E 115°42'3 2.9
2015-Jul-24 12:33S 32°03' E 115°45'0 0.0
2015-Jul-24 11:33S 32°03' E 115°45'0 0.0
2015-Jul-24 10:33S 32°03' E 115°45'0 0.0
2015-Jul-24 09:33S 32°03' E 115°45'0 0.0
2015-Jul-24 08:33S 32°03' E 115°45'0 0.0
2015-Jul-24 07:33S 32°03' E 115°45'0 0.0
2015-Jul-24 06:33S 32°03' E 115°45'0 0.0
2015-Jul-24 05:33S 32°03' E 115°45'0 0.0
2015-Jul-24 04:33S 32°03' E 115°45'0 0.0
2015-Jul-24 03:33S 32°03' E 115°45'0 0.0
2015-Jul-24 02:33S 32°03' E 115°45'0 0.0
2015-Jul-24 01:32S 32°03' E 115°45'0 0.0
2015-Jul-24 00:32S 32°03' E 115°45'0 0.0
2015-Jul-23 23:32S 32°03' E 115°45'0 0.0
2015-Jul-23 22:32S 32°03' E 115°45'0 0.0
2015-Jul-23 21:32S 32°03' E 115°45'0 0.0
2015-Jul-23 20:32S 32°03' E 115°45'0 0.0
2015-Jul-23 19:32S 32°03' E 115°45'0 0.0
2015-Jul-23 18:32S 32°03' E 115°45'0 0.0
2015-Jul-23 17:32S 32°03' E 115°45'0 0.0
2015-Jul-23 16:32S 32°03' E 115°45'0 0.0
2015-Jul-23 15:32S 32°03' E 115°45'0 0.0
2015-Jul-23 14:32S 32°03' E 115°45'0 0.0
2015-Jul-23 13:32S 32°03' E 115°45'0 0.0
2015-Jul-23 12:32S 32°03' E 115°45'0 0.0
2015-Jul-23 11:32S 32°03' E 115°45'0 0.0
2015-Jul-23 10:32S 32°03' E 115°45'0 0.0
2015-Jul-23 09:32S 32°03' E 115°45'0 0.0
2015-Jul-23 08:32S 32°03' E 115°45'0 0.0
2015-Jul-23 07:32S 32°03' E 115°45'0 0.0
2015-Jul-23 06:32S 32°03' E 115°45'0 0.0
2015-Jul-23 05:32S 32°03' E 115°45'0 0.0
2015-Jul-23 04:32S 32°03' E 115°45'0 0.0
2015-Jul-23 03:32S 32°03' E 115°45'0 0.0
2015-Jul-23 02:32S 32°03' E 115°45'0 0.0
2015-Jul-23 01:32S 32°03' E 115°45'0 0.0
2015-Jul-23 00:32S 32°03' E 115°45'0 0.0
2015-Jul-22 23:32S 32°03' E 115°45'0 0.0
2015-Jul-22 22:32S 32°03' E 115°45'0 0.0
2015-Jul-22 21:32S 32°03' E 115°45'0 0.0
2015-Jul-22 20:32S 32°03' E 115°45'0 0.0
2015-Jul-22 19:32S 32°03' E 115°45'0 0.0
2015-Jul-22 18:31S 32°03' E 115°45'0 0.0
2015-Jul-22 17:31S 32°03' E 115°45'0 0.0
2015-Jul-22 16:31S 32°03' E 115°45'0 0.0
2015-Jul-22 15:31S 32°03' E 115°45'0 0.0
2015-Jul-22 14:28S 32°03' E 115°45'0 0.0
2015-Jul-22 13:31S 32°03' E 115°45'0 0.0
2015-Jul-22 12:31S 32°03' E 115°45'0 0.0
2015-Jul-22 11:33S 32°03' E 115°45'4 3.8
2015-Jul-22 10:33S 31°60' E 115°42'10 9.6
2015-Jul-22 09:33S 31°55' E 115°32'9 9.0
2015-Jul-22 08:33S 31°54' E 115°22'  
2015-Jul-17 01:31S 34°48' E 138°22'29314.0
2015-Jul-16 04:33S 38°45' E 141°56'1717.1
2015-Jul-16 03:32S 38°48' E 142°17'  
Track history (hours):
 
Tides and Currents Weather Stations Pressure Air Temp Water Temp Dewpoint Dewpoint Depression Visibility Wind Speed Wind Dir Waves Ship Positions

MSC Claudia

Last reported at 2015-Jul-24 14:33 UTC. Time now 2015-Jul-29 22:00 UTC.
Position S 31°53' E 115°31'.

Length 292 m; draft 11.3 m.

Type: Ship (hazmat cat A). MMSI: 370606000.

Date/timePositionNaut miles runAvg speedWind from/ knotsBaromVisibWave heightAir tempDewpointWater temp
2015-Jul-24 14:33S 31°53' E 115°31'1212.2
2015-Jul-24 13:33S 32°01' E 115°42'3 2.9
2015-Jul-24 12:33S 32°03' E 115°45'0 0.0
2015-Jul-24 11:33S 32°03' E 115°45'0 0.0
2015-Jul-24 10:33S 32°03' E 115°45'0 0.0
2015-Jul-24 09:33S 32°03' E 115°45'0 0.0
2015-Jul-24 08:33S 32°03' E 115°45'0 0.0
2015-Jul-24 07:33S 32°03' E 115°45'0 0.0
2015-Jul-24 06:33S 32°03' E 115°45'0 0.0
2015-Jul-24 05:33S 32°03' E 115°45'0 0.0
2015-Jul-24 04:33S 32°03' E 115°45'0 0.0
2015-Jul-24 03:33S 32°03' E 115°45'0 0.0
2015-Jul-24 02:33S 32°03' E 115°45'0 0.0
2015-Jul-24 01:32S 32°03' E 115°45'0 0.0
2015-Jul-24 00:32S 32°03' E 115°45'0 0.0
2015-Jul-23 23:32S 32°03' E 115°45'0 0.0
2015-Jul-23 22:32S 32°03' E 115°45'0 0.0
2015-Jul-23 21:32S 32°03' E 115°45'0 0.0
2015-Jul-23 20:32S 32°03' E 115°45'0 0.0
2015-Jul-23 19:32S 32°03' E 115°45'0 0.0
2015-Jul-23 18:32S 32°03' E 115°45'0 0.0
2015-Jul-23 17:32S 32°03' E 115°45'0 0.0
2015-Jul-23 16:32S 32°03' E 115°45'0 0.0
2015-Jul-23 15:32S 32°03' E 115°45'0 0.0
2015-Jul-23 14:32S 32°03' E 115°45'0 0.0
2015-Jul-23 13:32S 32°03' E 115°45'0 0.0
2015-Jul-23 12:32S 32°03' E 115°45'0 0.0
2015-Jul-23 11:32S 32°03' E 115°45'0 0.0
2015-Jul-23 10:32S 32°03' E 115°45'0 0.0
2015-Jul-23 09:32S 32°03' E 115°45'0 0.0
2015-Jul-23 08:32S 32°03' E 115°45'0 0.0
2015-Jul-23 07:32S 32°03' E 115°45'0 0.0
2015-Jul-23 06:32S 32°03' E 115°45'0 0.0
2015-Jul-23 05:32S 32°03' E 115°45'0 0.0
2015-Jul-23 04:32S 32°03' E 115°45'0 0.0
2015-Jul-23 03:32S 32°03' E 115°45'0 0.0
2015-Jul-23 02:32S 32°03' E 115°45'0 0.0
2015-Jul-23 01:32S 32°03' E 115°45'0 0.0
2015-Jul-23 00:32S 32°03' E 115°45'0 0.0
2015-Jul-22 23:32S 32°03' E 115°45'0 0.0
2015-Jul-22 22:32S 32°03' E 115°45'0 0.0
2015-Jul-22 21:32S 32°03' E 115°45'0 0.0
2015-Jul-22 20:32S 32°03' E 115°45'0 0.0
2015-Jul-22 19:32S 32°03' E 115°45'0 0.0
2015-Jul-22 18:31S 32°03' E 115°45'0 0.0
2015-Jul-22 17:31S 32°03' E 115°45'0 0.0
2015-Jul-22 16:31S 32°03' E 115°45'0 0.0
2015-Jul-22 15:31S 32°03' E 115°45'0 0.0
2015-Jul-22 14:28S 32°03' E 115°45'0 0.0
2015-Jul-22 13:31S 32°03' E 115°45'0 0.0
2015-Jul-22 12:31S 32°03' E 115°45'0 0.0
2015-Jul-22 11:33S 32°03' E 115°45'4 3.8
2015-Jul-22 10:33S 31°60' E 115°42'10 9.6
2015-Jul-22 09:33S 31°55' E 115°32'9 9.0
2015-Jul-22 08:33S 31°54' E 115°22'  
2015-Jul-17 01:31S 34°48' E 138°22'29314.0
2015-Jul-16 04:33S 38°45' E 141°56'1717.1
2015-Jul-16 03:32S 38°48' E 142°17'  

Dump ship's entire track history